Latest Weather Observations for Christmas Island

IDW60801

Issued at 12:43 pm WST Monday 18 November 2019 (issued every 10 minutes, with the page automatically refreshed every 10 minutes)

About weather observations | Map of weather stations | Latest weather observations for WA | Other Formats
Station Details ID: 200790 Name: CHRISTMAS ISLAND AERO Lat: -10.45 Lon: 105.69 Height: 261.0 m
Data from the previous 72 hours. | See also: Recent months at Christmas Island
Date/Time
WST
Temp
°C
App
Temp
°C
Dew
Point
°C
Rel
Hum
%
Delta-T
°C
Wind Press
QNH
hPa
Press
MSL
hPa
Rain since
9am
mm
Dir  Spd
km/h
Gust
km/h
Spd
kts
Gust
kts
18/12:30pm 27.0 28.0 22.2 75 3.3 SE 20 33 11 18 1013.6 1012.0 0.0
18/12:00pm 26.9 28.1 22.5 77 3.0 SE 20 32 11 17 1013.9 1012.3 0.0
18/11:39am 26.7 27.7 22.1 76 3.1 SE 20 30 11 16 1014.1 - 0.0
18/11:30am 26.6 27.1 22.0 76 3.1 SE 22 33 12 18 1014.4 1012.7 0.0
18/11:00am 25.8 25.8 21.7 78 2.8 SE 24 33 13 18 1014.6 1013.1 0.0
18/10:34am 25.8 26.3 21.9 79 2.6 ESE 22 32 12 17 1014.9 - 0.0
18/10:30am 26.0 26.4 22.5 81 2.4 SE 24 32 13 17 1014.9 1013.4 0.0
18/10:02am 27.0 27.8 21.7 73 3.6 ESE 20 32 11 17 1015.3 - 0.0
18/10:00am 26.8 27.7 22.0 75 3.2 ESE 20 32 11 17 1015.3 1013.8 0.0
18/09:56am 26.9 27.8 21.9 74 3.4 ESE 20 32 11 17 1015.2 1013.7 0.0
18/09:55am 27.0 27.4 21.7 73 3.6 ESE 22 32 12 17 1015.3 - 0.0
18/09:51am 26.2 26.3 21.8 77 3.0 ESE 24 33 13 18 1015.3 - 0.0
18/09:45am 26.2 26.3 21.8 77 3.0 ESE 24 33 13 18 1015.3 1013.8 0.0
18/09:30am 25.7 25.8 21.8 79 2.6 ESE 24 32 13 17 1015.4 1013.9 0.0
18/09:00am 25.5 26.6 22.4 83 2.1 ESE 20 30 11 16 1015.4 1013.9 0.0
18/08:52am 25.5 26.4 22.0 81 2.4 ESE 20 28 11 15 1015.3 - 0.0
18/08:44am 25.4 26.0 22.1 82 2.2 ESE 22 30 12 16 1015.3 - 0.0
18/08:30am 25.6 26.5 21.9 80 2.5 ESE 20 30 11 16 1015.2 1013.7 0.0
18/08:26am 25.4 26.3 21.9 81 2.4 ESE 20 28 11 15 1015.2 - 0.0
18/08:23am 25.3 25.7 21.8 81 2.4 ESE 22 28 12 15 - - 0.0
18/08:22am 25.3 25.7 21.8 81 2.4 ESE 22 28 12 15 1015.2 - 0.0
18/08:09am 25.2 25.7 21.9 82 2.2 SE 22 30 12 16 1015.0 - 0.0
18/08:05am 24.9 25.3 21.8 83 2.1 SE 22 30 12 16 1015.0 - 0.0
18/08:00am 24.9 25.7 21.8 83 2.1 SE 20 30 11 16 1015.0 1013.5 0.0
18/07:30am 24.3 25.8 22.0 87 1.5 SE 17 24 9 13 1015.0 1013.5 0.0
18/07:14am 24.2 25.6 21.9 87 1.5 SE 17 24 9 13 1014.9 - 0.0
18/07:10am 24.2 25.5 21.7 86 1.7 SE 17 22 9 12 1014.9 - 0.0
18/07:08am 24.2 25.6 21.9 87 1.5 SE 17 24 9 13 1014.9 1013.4 0.0
18/07:07am 24.2 25.6 21.9 87 1.5 SE 17 24 9 13 1014.9 - 0.0
18/07:04am 24.2 25.6 21.9 87 1.5 SE 17 22 9 12 1014.9 1013.4 0.0
18/07:03am 24.2 25.5 21.7 86 1.7 SE 17 22 9 12 1014.9 - 0.0
18/07:00am 24.1 25.4 21.6 86 1.7 SE 17 22 9 12 1014.9 1013.4 0.0
18/06:40am 23.9 25.2 21.6 87 1.5 SE 17 24 9 13 1014.6 1013.1 0.0
18/06:30am 24.0 25.1 21.9 88 1.4 SE 19 26 10 14 1014.5 1013.0 0.0
18/06:14am 24.0 25.0 21.7 87 1.5 SE 19 28 10 15 1014.4 - 0.0
18/06:10am 24.0 25.0 21.7 87 1.5 SE 19 28 10 15 1014.4 - 0.0
18/06:08am 24.0 25.0 21.7 87 1.5 SE 19 28 10 15 1014.4 1012.9 0.0
18/06:07am 24.0 25.0 21.7 87 1.5 SE 19 28 10 15 1014.4 - 0.0
18/06:00am 24.0 25.0 21.7 87 1.5 SE 19 26 10 14 1014.3 1012.7 0.0
18/05:59am 24.0 25.0 21.7 87 1.5 SE 19 26 10 14 1014.3 1012.7 0.0
18/05:58am 24.0 25.0 21.7 87 1.5 SE 19 26 10 14 1014.4 - 0.0
18/05:44am 24.0 24.7 21.5 86 1.7 SE 20 32 11 17 1014.1 - 0.0
18/05:42am 24.1 24.9 21.8 87 1.5 SE 20 32 11 17 1014.2 1012.6 0.0
18/05:41am 24.1 24.9 21.8 87 1.5 SE 20 32 11 17 1014.2 - 0.0
18/05:30am 24.0 24.8 21.7 87 1.5 SE 20 32 11 17 1014.0 1012.4 0.0
18/05:06am 23.9 24.6 21.6 87 1.5 SE 20 28 11 15 1013.7 - 0.0
18/05:00am 23.8 24.5 21.5 87 1.5 SE 20 26 11 14 1013.7 1012.1 0.0
18/04:59am 23.9 24.6 21.6 87 1.5 SE 20 28 11 15 1013.7 - 0.0
18/04:57am 23.9 24.6 21.6 87 1.5 SE 20 28 11 15 1013.7 1012.1 0.0
18/04:49am 23.9 24.2 21.6 87 1.5 SE 22 30 12 16 1013.6 - 0.0
18/04:47am 24.0 24.8 21.7 87 1.5 SE 20 32 11 17 1013.5 - 0.0
18/04:46am 24.0 24.8 21.7 87 1.5 SE 20 32 11 17 1013.5 - 0.0
18/04:41am 24.0 24.4 21.7 87 1.5 SE 22 32 12 17 1013.5 1011.9 0.0
18/04:40am 24.0 24.8 21.7 87 1.5 SE 20 32 11 17 1013.5 1011.9 0.0
18/04:39am 24.0 24.8 21.7 87 1.5 SE 20 32 11 17 1013.5 - 0.0
18/04:30am 24.1 24.4 21.6 86 1.7 SE 22 32 12 17 1013.5 1012.0 0.0
18/04:11am 24.0 24.7 21.5 86 1.7 SE 20 28 11 15 1013.4 - 0.0
18/04:05am 24.0 24.7 21.5 86 1.7 SE 20 30 11 16 1013.4 1011.8 0.0
18/04:04am 24.0 24.7 21.5 86 1.7 SE 20 28 11 15 1013.4 - 0.0
18/04:00am 24.0 24.9 21.5 86 1.7 SE 19 30 10 16 1013.4 1011.8 0.0
18/03:30am 23.8 24.4 21.3 86 1.7 SE 20 30 11 16 1013.1 1011.5 0.0
18/03:19am 23.9 24.4 21.2 85 1.8 SE 20 30 11 16 1013.2 - 0.0
18/03:13am 23.9 24.4 21.2 85 1.8 SE 20 30 11 16 1013.2 1011.6 0.0
18/03:12am 23.9 24.4 21.2 85 1.8 SE 20 30 11 16 1013.2 - 0.0
18/03:00am 24.0 24.7 21.5 86 1.7 SE 20 32 11 17 1013.3 1011.7 0.0
18/02:59am 24.0 24.9 21.5 86 1.7 SE 19 30 10 16 1013.3 - 0.0
18/02:53am 24.0 25.0 21.7 87 1.5 SE 19 30 10 16 1013.3 1011.7 0.0
18/02:52am 24.0 24.9 21.5 86 1.7 SE 19 30 10 16 1013.3 - 0.0
18/02:49am 24.1 24.8 21.6 86 1.7 SE 20 35 11 19 1013.4 - 0.0
18/02:41am 24.1 24.8 21.6 86 1.7 SE 20 35 11 19 1013.4 1011.8 0.0
18/02:37am 24.1 25.1 21.8 87 1.5 SE 19 30 10 16 1013.4 - 0.0
18/02:36am 24.1 25.5 21.8 87 1.5 SE 17 30 9 16 1013.4 - 0.0
18/02:31am 24.0 24.9 21.5 86 1.7 SE 19 30 10 16 1013.4 1011.8 0.0
18/02:30am 24.1 25.1 21.8 87 1.5 SE 19 30 10 16 1013.4 1011.8 0.0
18/02:29am 24.1 25.1 21.8 87 1.5 SE 19 30 10 16 1013.4 - 0.0
18/02:08am 24.0 24.6 21.3 85 1.8 SE 20 32 11 17 - - 0.0
18/02:00am 24.1 24.7 21.4 85 1.8 SE 20 32 11 17 1013.6 1012.0 0.0
18/01:44am 24.2 25.0 21.7 86 1.7 SE 20 32 11 17 1013.7 - 0.0
18/01:30am 24.1 24.7 21.4 85 1.8 SE 20 35 11 19 1013.7 1012.1 0.0
18/01:24am 24.1 24.8 21.6 86 1.7 SE 20 30 11 16 1013.7 1012.1 0.0
18/01:23am 24.1 24.8 21.6 86 1.7 SE 20 30 11 16 1013.7 - 0.0
18/01:18am 24.2 24.9 21.5 85 1.8 SE 20 30 11 16 1013.8 - 0.0
18/01:12am 24.2 24.9 21.5 85 1.8 SE 20 30 11 16 1013.8 1012.2 0.0
18/01:11am 24.2 24.9 21.5 85 1.8 SE 20 30 11 16 1013.8 - 0.0
18/01:03am 24.3 25.1 21.8 86 1.7 SE 20 33 11 18 1014.0 - 0.0
18/01:00am 24.2 25.0 21.7 86 1.7 SE 20 33 11 18 1013.9 1012.3 0.0
18/12:58am 24.3 25.3 21.8 86 1.7 SE 19 30 10 16 1014.0 - 0.0
18/12:56am 24.3 25.1 21.8 86 1.7 SE 20 33 11 18 1014.0 - 0.0
18/12:55am 24.3 25.1 21.8 86 1.7 SE 20 33 11 18 1014.0 1012.4 0.0
18/12:52am 24.3 25.3 21.8 86 1.7 SE 19 30 10 16 1014.0 1012.4 0.0
18/12:51am 24.3 25.3 21.8 86 1.7 SE 19 30 10 16 1014.0 - 0.0
18/12:30am 24.2 24.9 21.5 85 1.8 SE 20 33 11 18 1014.1 1012.5 0.0
18/12:27am 24.2 24.9 21.5 85 1.8 SE 20 33 11 18 - - 0.0
18/12:24am 24.3 25.0 21.6 85 1.8 SE 20 28 11 15 - - 0.0
18/12:02am 24.2 25.0 21.7 86 1.7 SE 20 30 11 16 1014.4 - 0.0
18/12:00am 24.4 25.3 21.9 86 1.7 SE 20 30 11 16 1014.4 1012.9 0.0
 
Date/Time
WST
Temp
°C
App
Temp
°C
Dew
Point
°C
Rel
Hum
%
Delta-T
°C
Wind Press
QNH
hPa
Press
MSL
hPa
Rain since
9am
mm
Dir  Spd
km/h
Gust
km/h
Spd
kts
Gust
kts
17/11:53pm 24.3 24.7 21.8 86 1.7 SE 22 35 12 19 1014.5 - 0.0
17/11:30pm 24.4 25.1 21.5 84 1.9 SE 20 32 11 17 1014.7 1013.2 0.0
17/11:26pm 24.3 24.9 21.4 84 1.9 SE 20 32 11 17 1014.8 - 0.0
17/11:00pm 24.4 25.3 21.5 84 1.9 SE 19 33 10 18 1015.0 1013.5 0.0
17/10:39pm 24.4 24.8 21.7 85 1.8 SE 22 32 12 17 1015.1 - 0.0
17/10:30pm 24.5 25.3 21.8 85 1.8 SE 20 32 11 17 1015.0 1013.5 0.0
17/10:00pm 24.4 25.1 21.5 84 1.9 SE 20 35 11 19 1015.0 1013.5 0.0
17/09:48pm 24.5 25.3 21.8 85 1.8 SE 20 30 11 16 1014.8 - 0.0
17/09:42pm 24.5 25.4 22.0 86 1.7 SE 20 30 11 16 1014.8 1013.3 0.0
17/09:41pm 24.5 25.3 21.8 85 1.8 SE 20 30 11 16 1014.8 - 0.0
17/09:30pm 24.5 24.5 21.6 84 1.9 SE 24 35 13 19 1014.9 1013.4 0.0
17/09:26pm 24.4 24.2 21.3 83 2.1 SE 24 35 13 19 1014.9 - 0.0
17/09:20pm 24.5 24.4 21.4 83 2.1 SE 24 35 13 19 1014.9 1013.4 0.0
17/09:19pm 24.4 24.2 21.3 83 2.1 SE 24 35 13 19 1014.9 - 0.0
17/09:00pm 24.5 24.6 21.8 85 1.8 SE 24 35 13 19 1014.9 1013.4 0.0
17/08:54pm 24.5 24.8 21.6 84 1.9 SE 22 35 12 19 - - 0.0
17/08:40pm 24.5 24.9 21.8 85 1.8 SE 22 32 12 17 1014.7 - 0.0
17/08:34pm 24.5 24.9 21.8 85 1.8 SE 22 30 12 16 1014.7 1013.2 0.0
17/08:30pm 24.4 24.6 21.3 83 2.1 SE 22 33 12 18 1014.6 1013.2 0.0
17/08:12pm 24.5 25.2 21.6 84 1.9 SE 20 33 11 18 1014.4 - 0.0
17/08:00pm 24.4 24.6 21.3 83 2.1 SE 22 35 12 19 1014.3 1012.7 0.0
17/07:48pm 24.6 25.4 21.7 84 1.9 SE 20 32 11 17 1014.0 - 0.0
17/07:45pm 24.5 25.3 21.8 85 1.8 SE 20 32 11 17 1014.0 - 0.0
17/07:39pm 24.5 25.2 21.6 84 1.9 SE 20 32 11 17 1014.0 1012.4 0.0
17/07:38pm 24.5 25.3 21.8 85 1.8 SE 20 32 11 17 1014.0 - 0.0
17/07:30pm 24.5 24.8 21.6 84 1.9 SE 22 35 12 19 1013.9 1012.3 0.0
17/07:21pm 24.6 25.4 21.7 84 1.9 SE 20 32 11 17 1013.7 - 0.0
17/07:15pm 24.5 25.2 21.6 84 1.9 SE 20 32 11 17 1013.7 1012.1 0.0
17/07:14pm 24.6 25.4 21.7 84 1.9 SE 20 32 11 17 1013.7 - 0.0
17/07:08pm 24.7 25.5 21.8 84 1.9 SE 20 33 11 18 1013.6 - 0.0
17/07:02pm 24.6 25.4 21.7 84 1.9 SE 20 33 11 18 1013.6 1012.0 0.0
17/07:01pm 24.7 25.5 21.8 84 1.9 SE 20 33 11 18 1013.6 - 0.0
17/07:00pm 24.7 25.4 21.6 83 2.1 SE 20 33 11 18 1013.5 1012.0 0.0
17/06:56pm 24.7 24.7 21.6 83 2.1 SE 24 37 13 20 - - 0.0
17/06:50pm 24.6 24.5 21.5 83 2.1 SE 24 37 13 20 1013.4 1011.8 0.0
17/06:49pm 24.7 24.7 21.6 83 2.1 SE 24 37 13 20 - - 0.0
17/06:44pm 24.7 25.0 21.6 83 2.1 SE 22 33 12 18 1013.4 1011.8 0.0
17/06:30pm 24.8 25.2 21.7 83 2.1 SE 22 33 12 18 1013.1 1011.5 0.0
17/06:20pm 25.1 25.5 21.8 82 2.2 SE 22 33 12 18 1013.1 - 0.0
17/06:11pm 25.2 26.0 21.7 81 2.3 SE 20 32 11 17 1012.9 - 0.0
17/06:08pm 25.3 26.1 21.8 81 2.4 SE 20 30 11 16 1012.8 - 0.0
17/06:05pm 25.2 26.0 21.7 81 2.3 SE 20 32 11 17 1012.9 1011.3 0.0
17/06:04pm 25.2 26.0 21.7 81 2.3 SE 20 32 11 17 1012.9 - 0.0
17/06:02pm 25.2 26.0 21.7 81 2.3 SE 20 30 11 16 1012.8 1011.2 0.0
17/06:01pm 25.3 26.3 21.8 81 2.4 SE 19 30 10 16 1012.8 - 0.0
17/06:00pm 25.3 26.1 21.8 81 2.4 SE 20 33 11 18 1012.8 1011.2 0.0
17/05:30pm 25.8 26.6 21.7 78 2.8 SE 20 33 11 18 1012.5 1010.9 0.0
17/05:00pm 25.9 25.9 21.6 77 2.9 SE 24 37 13 20 1012.3 1010.7 0.0
17/04:30pm 26.2 26.2 21.6 76 3.1 SE 24 35 13 19 1012.3 1010.7 0.0
17/04:23pm 26.1 26.3 22.0 78 2.8 SE 24 35 13 19 1012.4 1010.8 0.0
17/04:19pm 26.8 27.3 22.0 75 3.2 SE 22 33 12 18 1012.4 1010.8 0.0
17/04:08pm 26.5 27.0 21.9 76 3.1 SE 22 39 12 21 1012.5 - 0.0
17/04:00pm 26.4 25.7 21.8 76 3.1 SE 28 39 15 21 1012.5 1010.9 0.0
17/03:46pm 26.4 26.1 21.8 76 3.1 SE 26 37 14 20 1012.6 - 0.0
17/03:34pm 25.8 25.3 21.5 77 2.9 SE 26 39 14 21 1012.8 - 0.0
17/03:30pm 26.8 26.9 21.8 74 3.4 SE 24 39 13 21 1012.9 1011.2 0.0
17/03:05pm 26.2 25.4 21.6 76 3.1 SE 28 35 15 19 1013.0 - 0.0
17/03:00pm 26.1 25.2 21.5 76 3.1 SE 28 35 15 19 1013.0 1011.4 0.0
17/02:47pm 26.5 26.2 21.9 76 3.1 SE 26 35 14 19 1013.0 1011.4 0.0
17/02:44pm 26.5 26.4 21.5 74 3.4 SE 24 33 13 18 1013.0 1011.4 0.0
17/02:35pm 26.8 27.7 22.0 75 3.2 SE 20 39 11 21 1013.1 - 0.0
17/02:30pm 27.4 28.4 22.1 73 3.6 SE 20 33 11 18 1013.1 1011.5 0.0
17/02:20pm 26.9 26.9 21.6 72 3.6 SE 24 39 13 21 1013.1 - 0.0
17/02:00pm 26.3 25.4 21.5 75 3.2 SE 28 37 15 20 1013.2 1011.6 0.0
17/01:30pm 26.7 26.6 21.5 73 3.5 SE 24 39 13 21 1013.5 1011.8 0.0
17/01:11pm 26.8 27.1 21.5 72 3.6 SE 22 33 12 18 1013.6 - 0.0
17/01:00pm 26.7 26.2 21.5 73 3.5 SE 26 39 14 21 1013.8 1012.2 0.0
17/12:30pm 26.5 26.1 21.7 75 3.2 SE 26 37 14 20 1014.3 1012.7 0.0
17/12:00pm 27.0 27.4 21.7 73 3.6 SE 22 35 12 19 1014.6 1013.1 0.0
17/11:50am 26.5 26.4 21.5 74 3.4 SE 24 33 13 18 1014.6 1013.1 0.0
17/11:47am 26.6 27.0 21.8 75 3.2 SE 22 33 12 18 1014.6 - 0.0
17/11:30am 26.5 26.5 21.7 75 3.2 SE 24 35 13 19 1015.0 1013.5 0.0
17/11:13am 26.1 25.9 21.3 75 3.2 SE 24 35 13 19 1015.2 1013.7 0.0
17/11:12am 26.2 26.0 21.2 74 3.3 SE 24 33 13 18 1015.2 - 0.0
17/11:00am 26.4 25.6 20.9 72 3.7 SE 26 39 14 21 1015.2 1013.7 0.0
17/10:43am 26.3 25.7 21.3 74 3.3 ESE 26 37 14 20 1015.4 - 0.0
17/10:42am 26.4 25.9 21.4 74 3.4 ESE 26 37 14 20 1015.3 - 0.0
17/10:36am 26.6 26.9 21.6 74 3.4 ESE 22 32 12 17 1015.4 1013.9 0.0
17/10:35am 26.6 26.6 21.6 74 3.4 ESE 24 32 13 17 1015.4 - 0.0
17/10:30am 26.3 26.2 20.8 71 3.7 ESE 22 32 12 17 1015.5 1013.9 0.0
17/10:19am 26.9 27.0 21.2 71 3.8 ESE 22 32 12 17 1015.5 1014.0 0.0
17/10:18am 26.9 27.0 21.2 71 3.8 ESE 22 32 12 17 1015.5 - 0.0
17/10:00am 26.2 25.8 21.0 73 3.5 ESE 24 35 13 19 1015.9 1014.3 0.0
17/09:30am 25.9 25.6 21.1 75 3.2 ESE 24 32 13 17 1015.9 1014.3 0.0
17/09:12am 25.7 25.9 21.4 77 2.9 ESE 22 35 12 19 1015.7 - 0.0
17/09:00am 25.9 26.0 21.8 78 2.8 ESE 24 32 13 17 1015.6 1014.1 0.0
17/08:46am 25.1 25.6 21.2 79 2.6 ESE 20 30 11 16 1015.6 - 0.0
17/08:40am 25.1 25.6 21.2 79 2.6 ESE 20 30 11 16 1015.6 1014.1 0.0
17/08:37am 25.1 25.7 21.0 78 2.7 ESE 19 28 10 15 1015.6 1014.1 0.0
17/08:30am 25.5 25.6 21.2 77 2.9 ESE 22 35 12 19 1015.5 1014.0 0.0
17/08:29am 25.0 25.7 21.5 81 2.3 ESE 20 32 11 17 1015.4 - 0.0
17/08:27am 24.7 25.2 21.2 81 2.3 ESE 20 32 11 17 1015.4 - 0.0
17/08:24am 25.1 25.6 21.2 79 2.6 ESE 20 35 11 19 1015.4 1013.9 0.0
17/08:22am 25.0 25.7 21.5 81 2.3 ESE 20 32 11 17 1015.4 - 0.0
17/08:21am 24.8 25.4 21.3 81 2.3 ESE 20 32 11 17 1015.4 1013.9 0.0
17/08:00am 24.8 25.4 21.3 81 2.3 SE 20 28 11 15 1015.3 1013.8 0.0
17/07:58am 24.7 25.2 21.2 81 2.3 SE 20 28 11 15 1015.3 1013.8 0.0
17/07:57am 24.7 25.4 21.2 81 2.3 SE 19 26 10 14 1015.3 - 0.0
17/07:55am 24.6 24.7 21.1 81 2.3 SE 22 32 12 17 1015.3 - 0.0
17/07:49am 24.6 24.7 21.1 81 2.3 SE 22 30 12 16 1015.3 1013.8 0.0
17/07:30am 24.1 24.6 20.8 82 2.2 SE 19 26 10 14 1015.3 1013.7 0.0
17/07:00am 23.9 25.0 21.2 85 1.8 SE 17 22 9 12 1015.1 1013.6 0.0
17/06:43am 23.9 24.6 21.2 85 1.8 SE 19 28 10 15 1014.9 1013.4 0.0
17/06:38am 23.8 24.3 20.9 84 1.9 SE 19 24 10 13 1014.8 - 0.0
17/06:30am 23.8 24.7 20.9 84 1.9 SE 17 24 9 13 1014.7 1013.2 0.0
17/06:04am 23.6 24.0 20.7 84 1.9 SE 19 28 10 15 1014.4 1012.9 0.0
17/06:03am 23.6 23.9 20.7 84 1.9 SE 20 28 11 15 1014.4 - 0.0
17/06:00am 23.8 24.3 20.9 84 1.9 SE 19 28 10 15 1014.4 1012.9 0.0
17/05:30am 23.6 24.1 20.9 85 1.8 SE 19 28 10 15 1014.3 1012.7 0.0
17/05:28am 23.6 24.0 20.9 85 1.8 SE 20 30 11 16 1014.3 - 0.0
17/05:00am 23.9 24.7 21.4 86 1.7 SE 19 28 10 15 1014.3 1012.7 0.0
17/04:38am 23.8 24.4 21.1 85 1.8 SE 19 28 10 15 1014.3 - 0.0
17/04:30am 23.8 24.8 21.1 85 1.8 SE 17 22 9 12 1014.3 1012.7 0.0
17/04:00am 23.8 24.2 20.9 84 1.9 SE 20 30 11 16 1014.4 1012.9 0.0
17/03:46am 23.8 24.3 20.9 84 1.9 SE 19 28 10 15 - - 0.0
17/03:44am 23.8 24.3 20.9 84 1.9 SE 19 28 10 15 1014.3 1012.7 0.0
17/03:43am 23.8 24.3 20.9 84 1.9 SE 19 28 10 15 1014.3 - 0.0
17/03:30am 23.7 24.3 21.0 85 1.8 SE 19 26 10 14 1014.3 1012.7 0.0
17/03:00am 23.7 24.0 20.8 84 1.9 SE 20 30 11 16 1014.5 1013.0 0.0
17/02:53am 23.6 23.9 20.7 84 1.9 SE 20 28 11 15 1014.6 - 0.0
17/02:46am 23.6 23.9 20.7 84 1.9 SE 20 28 11 15 1014.6 - 0.0
17/02:45am 23.6 23.9 20.7 84 1.9 SE 20 28 11 15 1014.6 1013.1 0.0
17/02:30am 23.9 24.7 21.4 86 1.7 SE 19 30 10 16 1014.6 1013.1 0.0
17/02:26am 24.0 24.9 21.5 86 1.7 SE 19 28 10 15 - - 0.0
17/02:16am 24.0 24.6 21.3 85 1.8 SE 20 30 11 16 1014.6 - 0.0
17/02:13am 24.1 24.8 21.6 86 1.7 SE 20 30 11 16 1014.8 - 0.0
17/02:07am 24.1 24.8 21.6 86 1.7 SE 20 30 11 16 1014.8 1013.3 0.0
17/02:06am 24.1 24.8 21.6 86 1.7 SE 20 30 11 16 1014.8 - 0.0
17/02:00am 24.1 24.7 21.4 85 1.8 SE 20 32 11 17 1014.8 1013.3 0.0
17/01:39am 23.9 23.5 21.0 84 1.9 SE 24 37 13 20 1015.1 - 0.0
17/01:30am 23.9 23.9 21.0 84 1.9 SE 22 37 12 20 1015.2 1013.7 0.0
17/01:26am 24.1 23.9 21.2 84 1.9 SE 24 32 13 17 1015.3 - 0.0
17/01:21am 24.1 24.3 21.4 85 1.8 SE 22 32 12 17 1015.3 - 0.0
17/01:15am 24.1 24.3 21.4 85 1.8 SE 22 32 12 17 1015.3 1013.8 0.0
17/01:14am 24.1 24.3 21.4 85 1.8 SE 22 32 12 17 1015.3 - 0.0
17/01:00am 24.2 25.2 21.7 86 1.7 ESE 19 30 10 16 1015.4 1013.9 0.0
17/12:57am 24.1 24.7 21.4 85 1.8 ESE 20 33 11 18 1015.4 - 0.0
17/12:30am 24.2 25.2 21.7 86 1.7 ESE 19 28 10 15 1015.4 1013.9 0.0
17/12:21am 24.0 24.8 21.3 85 1.8 SE 19 28 10 15 - - 0.0
17/12:00am 24.2 25.0 21.7 86 1.7 SE 20 33 11 18 1015.7 1014.2 0.0
 
Date/Time
WST
Temp
°C
App
Temp
°C
Dew
Point
°C
Rel
Hum
%
Delta-T
°C
Wind Press
QNH
hPa
Press
MSL
hPa
Rain since
9am
mm
Dir  Spd
km/h
Gust
km/h
Spd
kts
Gust
kts
16/11:57pm 24.2 25.0 21.7 86 1.7 SE 20 33 11 18 1015.7 - 0.0
16/11:40pm 24.2 25.3 21.9 87 1.5 SE 19 33 10 18 1015.9 1014.3 0.0
16/11:37pm 24.2 25.2 21.7 86 1.7 SE 19 30 10 16 1015.8 - 0.0
16/11:30pm 24.1 25.1 21.8 87 1.5 SE 19 35 10 19 1015.9 1014.3 0.0
16/11:00pm 24.1 25.5 21.8 87 1.5 SE 17 32 9 17 1015.7 1014.2 0.0
16/10:30pm 24.3 25.3 22.2 88 1.4 SE 20 30 11 16 1015.5 1014.0 0.0
16/10:23pm 24.1 25.1 21.8 87 1.5 SE 19 30 10 16 1015.5 - 0.0
16/10:00pm 24.1 25.1 21.8 87 1.5 SE 19 28 10 15 1015.4 1013.9 0.0
16/09:53pm 24.1 25.1 21.8 87 1.5 SE 19 32 10 17 1015.4 - 0.0
16/09:52pm 24.1 25.1 21.8 87 1.5 SE 19 32 10 17 1015.4 - 0.0
16/09:46pm 24.1 25.1 21.8 87 1.5 SE 19 32 10 17 1015.4 - 0.0
16/09:45pm 24.1 25.1 21.8 87 1.5 SE 19 32 10 17 1015.4 - 0.0
16/09:30pm 24.3 25.9 22.2 88 1.4 SE 17 28 9 15 1015.3 1013.8 0.0
16/09:24pm 24.3 25.5 22.2 88 1.4 SE 19 30 10 16 1015.3 - 0.0
16/09:00pm 24.3 25.9 22.2 88 1.4 SE 17 24 9 13 1015.1 1013.7 0.0
16/08:30pm 24.4 25.8 22.5 89 1.3 SE 19 28 10 15 1014.9 1013.4 0.0
16/08:18pm 24.2 25.8 22.1 88 1.4 SE 17 30 9 16 - - 0.0
16/08:00pm 24.3 25.5 22.2 88 1.4 SE 19 30 10 16 1014.6 1013.1 0.0
16/07:30pm 24.4 25.8 22.5 89 1.3 SE 19 28 10 15 1014.2 1012.6 0.0
16/07:00pm 24.5 25.8 22.4 88 1.4 SE 19 30 10 16 1013.8 1012.2 0.0
16/06:30pm 24.8 26.1 22.7 88 1.4 SE 20 32 11 17 1013.7 1012.1 0.0
16/06:00pm 25.2 26.7 22.7 86 1.7 SE 19 28 10 15 1013.5 1011.9 0.0
16/05:30pm 25.4 26.8 22.5 84 2.0 SE 19 28 10 15 1013.2 1011.6 0.0
16/05:00pm 25.7 26.8 22.4 82 2.2 SE 20 32 11 17 1013.1 1011.5 0.0
16/04:56pm 25.6 26.7 22.3 82 2.2 SE 20 30 11 16 1013.1 - 0.0
16/04:30pm 25.9 27.0 22.4 81 2.4 SE 20 33 11 18 1013.0 1011.4 0.0
16/04:17pm 26.0 26.8 22.5 81 2.4 SE 22 32 12 17 1013.0 1011.4 0.0
16/04:08pm 25.8 26.6 22.5 82 2.2 SE 22 33 12 18 1012.9 - 0.0
16/04:00pm 26.0 26.3 22.9 83 2.1 SE 26 33 14 18 1012.9 1011.3 0.0
16/03:45pm 26.5 27.9 22.6 79 2.7 SE 19 32 10 17 - - 0.0
16/03:30pm 26.0 26.4 22.5 81 2.4 SE 24 35 13 19 1013.1 1011.4 0.0
16/03:00pm 27.1 28.1 22.9 78 2.9 SE 22 33 12 18 1013.3 1011.7 0.0
16/02:48pm 27.1 28.5 22.5 76 3.1 SE 19 30 10 16 1013.3 - 0.0
16/02:30pm 26.7 27.0 22.3 77 3.0 SE 24 35 13 19 1013.5 1011.9 0.0
16/02:21pm 26.9 27.8 22.7 78 2.9 SE 22 37 12 20 - - 0.0
16/02:09pm 26.6 26.6 22.4 78 2.9 SE 26 37 14 20 1013.7 - 0.0
16/02:00pm 26.6 26.6 22.4 78 2.9 SE 26 39 14 21 1013.9 1012.3 0.0
16/01:30pm 26.9 26.6 22.5 77 3.0 SE 28 41 15 22 1014.1 1012.5 0.0
16/01:07pm 26.8 26.9 22.6 78 2.9 SE 26 37 14 20 1014.4 - 0.0
16/01:00pm 26.6 26.9 22.2 77 3.0 SE 24 37 13 20 1014.5 1013.0 0.0
16/12:30pm 26.3 25.7 21.9 77 3.0 SE 28 37 15 20 1014.8 1013.3 0.0
16/12:27pm 26.8 26.5 22.6 78 2.9 SE 28 39 15 21 1014.9 - 0.0
16/12:25pm 26.7 26.3 22.3 77 3.0 SE 28 39 15 21 1014.9 - 0.0
16/12:00pm 26.6 26.4 22.0 76 3.1 SE 26 37 14 20 1014.9 1013.4 0.0
16/11:30am 26.9 27.1 22.7 78 2.9 SE 26 37 14 20 1015.2 1013.7 0.0
16/11:15am 26.8 26.8 22.4 77 3.0 SE 26 39 14 21 1015.3 - 0.0
16/11:00am 26.0 25.1 22.1 79 2.6 SE 30 37 16 20 1015.3 1013.8 0.0
16/10:55am 26.2 25.5 21.8 77 3.0 SE 28 37 15 20 1015.4 - 0.0
16/10:30am 26.1 25.5 22.0 78 2.8 SE 28 35 15 19 1015.6 1014.1 0.0
16/10:00am 26.1 26.8 22.2 79 2.6 SE 22 33 12 18 1015.9 1014.3 0.0
16/09:52am 26.2 26.8 22.1 78 2.8 ESE 22 35 12 19 - - 0.0
16/09:30am 26.0 25.7 21.9 78 2.8 ESE 26 35 14 19 1015.7 1014.2 0.0
16/09:29am 26.0 25.7 21.9 78 2.8 ESE 26 35 14 19 1015.7 - 0.0
16/09:17am 25.8 25.6 22.1 80 2.5 ESE 26 35 14 19 1015.7 - 0.0
16/09:00am 25.6 25.7 21.9 80 2.5 ESE 24 33 13 18 1015.6 1014.1 0.0
16/08:30am 25.2 25.3 21.9 82 2.2 ESE 24 32 13 17 1015.4 1013.9 0.0
16/08:00am 24.7 25.4 21.6 83 2.1 SE 20 33 11 18 1015.2 1013.7 0.0
16/07:30am 24.6 25.7 21.9 85 1.8 SE 19 26 10 14 1015.0 1013.5 0.0
16/07:05am 24.1 25.1 21.8 87 1.5 SE 19 28 10 15 - - 0.0
16/07:00am 23.9 24.9 21.8 88 1.4 SE 19 28 10 15 1014.7 1013.2 0.0
16/06:30am 23.7 24.5 21.4 87 1.5 SE 19 28 10 15 1014.5 1013.0 0.0
16/06:00am 23.7 25.0 21.6 88 1.4 SE 17 24 9 13 1014.2 1012.6 0.0
16/05:36am 23.7 25.4 21.6 88 1.4 ESE 15 20 8 11 1014.1 - 0.0
16/05:35am 23.7 25.4 21.6 88 1.4 ESE 15 20 8 11 1014.1 - 0.0
16/05:31am 23.7 25.4 21.6 88 1.4 ESE 15 20 8 11 1014.1 1012.5 0.0
16/05:30am 23.7 25.4 21.6 88 1.4 ESE 15 20 8 11 1014.1 1012.5 0.0
16/05:29am 23.7 25.4 21.6 88 1.4 ESE 15 20 8 11 1014.1 1012.5 0.0
16/05:28am 23.7 25.4 21.6 88 1.4 ESE 15 20 8 11 1014.1 - 0.0
16/05:20am 23.5 24.7 21.4 88 1.4 SE 17 24 9 13 1013.9 - 0.0
16/05:01am 23.7 25.4 21.6 88 1.4 SE 15 20 8 11 1013.9 - 0.0
16/05:00am 23.6 25.2 21.5 88 1.4 SE 15 20 8 11 1013.9 1012.3 0.0
16/04:55am 23.7 25.4 21.6 88 1.4 SE 15 20 8 11 1013.9 1012.3 0.0
16/04:54am 23.7 25.4 21.6 88 1.4 SE 15 20 8 11 1013.9 - 0.0
16/04:30am 23.6 24.6 21.1 86 1.7 SE 17 24 9 13 1013.9 1012.3 0.0
16/04:00am 23.7 24.7 21.0 85 1.8 ESE 17 24 9 13 1014.0 1012.4 0.0
16/03:53am 23.6 24.1 20.9 85 1.8 ESE 19 26 10 14 1013.9 - 0.0
16/03:52am 23.7 24.3 21.0 85 1.8 ESE 19 26 10 14 1013.9 1012.3 0.0
16/03:42am 23.8 24.4 21.3 86 1.7 ESE 20 26 11 14 1013.8 - 0.0
16/03:41am 23.9 24.7 21.4 86 1.7 ESE 19 26 10 14 1013.8 - 0.0
16/03:35am 23.8 24.6 21.3 86 1.7 ESE 19 26 10 14 1013.8 - 0.0
16/03:30am 23.7 24.7 21.0 85 1.8 ESE 17 26 9 14 1013.8 1012.2 0.0
16/03:27am 23.8 24.4 21.1 85 1.8 ESE 19 24 10 13 1013.7 - 0.0
16/03:20am 23.8 24.6 21.3 86 1.7 ESE 19 24 10 13 1013.8 1012.1 0.0
16/03:15am 23.7 24.8 21.2 86 1.7 ESE 17 24 9 13 1013.7 1012.1 0.0
16/03:00am 23.8 24.9 21.3 86 1.7 ESE 17 24 9 13 1013.9 1012.3 0.0
16/02:30am 23.8 25.0 21.5 87 1.5 ESE 17 26 9 14 1014.0 1012.4 0.0
16/02:00am 23.9 24.8 21.6 87 1.5 ESE 19 24 10 13 1014.2 1012.6 0.0
16/01:57am 24.0 25.0 21.7 87 1.5 ESE 19 24 10 13 1014.2 1012.6 0.0
16/01:56am 24.0 25.0 21.7 87 1.5 ESE 19 24 10 13 1014.2 - 0.0
16/01:30am 23.8 24.9 21.3 86 1.7 SE 17 24 9 13 1014.4 1012.9 0.0
16/01:28am 23.8 24.3 21.1 85 1.8 ESE 20 28 11 15 1014.5 - 0.0
16/01:22am 23.8 24.3 21.1 85 1.8 SE 20 28 11 15 1014.4 1012.9 0.0
16/01:21am 23.8 24.3 21.1 85 1.8 ESE 20 28 11 15 1014.5 - 0.0
16/01:00am 23.8 24.4 21.3 86 1.7 ESE 20 26 11 14 1014.6 1013.1 0.0
16/12:30am 24.0 25.3 21.7 87 1.5 ESE 17 26 9 14 1014.7 1013.2 0.0
16/12:00am 23.9 24.8 21.6 87 1.5 SE 19 26 10 14 1014.9 1013.4 0.0
 
Date/Time
WST
Temp
°C
App
Temp
°C
Dew
Point
°C
Rel
Hum
%
Delta-T
°C
Wind Press
QNH
hPa
Press
MSL
hPa
Rain since
9am
mm
Dir  Spd
km/h
Gust
km/h
Spd
kts
Gust
kts
15/11:30pm 24.0 25.0 21.7 87 1.5 SE 19 28 10 15 1015.0 1013.5 0.0
15/11:10pm 24.1 25.2 22.0 88 1.4 ESE 19 28 10 15 1015.0 - 0.0
15/11:08pm 24.2 25.4 22.1 88 1.4 ESE 19 28 10 15 1015.0 1013.5 0.0
15/11:06pm 24.1 25.2 22.0 88 1.4 ESE 19 28 10 15 1015.0 1013.5 0.0
15/11:00pm 24.1 25.2 22.0 88 1.4 ESE 19 28 10 15 1015.0 1013.5 0.0
15/10:56pm 24.0 25.0 21.7 87 1.5 SE 19 26 10 14 1015.0 - 0.0
15/10:55pm 24.1 25.1 21.8 87 1.5 SE 19 28 10 15 1015.0 1013.5 0.0
15/10:50pm 24.1 25.2 22.0 88 1.4 ESE 19 26 10 14 1015.0 - 0.0
15/10:49pm 24.0 25.0 21.7 87 1.5 SE 19 26 10 14 1015.0 - 0.0
15/10:43pm 24.1 25.2 22.0 88 1.4 SE 19 26 10 14 1015.0 1013.5 0.0
15/10:42pm 24.1 25.1 21.8 87 1.5 SE 19 26 10 14 1015.0 - 0.0
15/10:30pm 24.1 25.1 21.8 87 1.5 SE 19 26 10 14 1014.9 1013.4 0.0
15/10:08pm 24.1 25.1 21.8 87 1.5 SE 19 28 10 15 1014.8 - 0.0
15/10:00pm 24.1 25.1 21.8 87 1.5 ESE 19 28 10 15 1014.8 1013.3 0.0
15/09:37pm 24.2 25.2 21.7 86 1.7 SE 19 28 10 15 1014.5 - 0.0
15/09:30pm 24.2 25.2 21.7 86 1.7 SE 19 24 10 13 1014.4 1012.9 0.0
15/09:28pm 24.3 25.3 21.8 86 1.7 SE 19 26 10 14 1014.4 - 0.0
15/09:27pm 24.3 25.3 21.8 86 1.7 SE 19 26 10 14 1014.4 - 0.0
15/09:03pm 24.2 25.1 21.5 85 1.8 SE 19 28 10 15 1014.2 - 0.0
15/09:00pm 24.2 25.1 21.5 85 1.8 SE 19 28 10 15 1014.2 1012.6 0.0
15/08:57pm 24.2 25.1 21.5 85 1.8 SE 19 28 10 15 1014.2 1012.6 0.0
15/08:56pm 24.2 25.1 21.5 85 1.8 SE 19 28 10 15 1014.2 - 0.0
15/08:54pm 24.1 24.9 21.4 85 1.8 SE 19 28 10 15 1014.2 1012.6 0.0
15/08:53pm 24.2 25.1 21.5 85 1.8 SE 19 26 10 14 1014.2 - 0.0
15/08:30pm 24.3 25.1 21.8 86 1.7 SE 20 28 11 15 1013.9 1012.3 0.0
15/08:00pm 24.4 25.3 21.9 86 1.7 SE 20 28 11 15 1013.5 1011.9 0.0
15/07:30pm 24.3 25.3 21.8 86 1.7 SE 19 28 10 15 1013.1 1011.5 0.0
15/07:24pm 24.5 25.4 22.0 86 1.7 SE 20 28 11 15 1013.1 - 0.0
15/07:18pm 24.5 25.4 22.0 86 1.7 SE 20 28 11 15 1013.1 1011.5 0.0
15/07:17pm 24.5 25.4 22.0 86 1.7 SE 20 28 11 15 1013.1 - 0.0
15/07:05pm 24.5 25.2 21.6 84 1.9 SE 20 28 11 15 1013.0 - 0.0
15/07:00pm 24.5 25.3 21.8 85 1.8 SE 20 28 11 15 1013.0 1011.4 0.0
15/06:59pm 24.5 25.2 21.6 84 1.9 SE 20 28 11 15 1013.0 1011.4 0.0
15/06:58pm 24.5 25.2 21.6 84 1.9 SE 20 28 11 15 1013.0 - 0.0
15/06:30pm 24.7 25.4 21.6 83 2.1 SE 20 30 11 16 1012.9 1011.3 0.0
15/06:17pm 24.9 25.9 21.8 83 2.1 SE 19 28 10 15 1012.9 - 0.0
15/06:00pm 25.0 25.9 21.9 83 2.1 SE 20 30 11 16 1012.7 1011.1 0.0
15/05:35pm 25.5 26.4 22.0 81 2.4 SE 20 30 11 16 1012.5 - 0.0
15/05:30pm 25.4 25.8 21.7 80 2.5 SE 22 30 12 16 1012.4 1010.8 0.0
15/05:06pm 26.0 27.2 22.1 79 2.6 SE 19 26 10 14 1012.3 - 0.0
15/05:01pm 26.4 27.5 22.3 78 2.8 SE 20 30 11 16 1012.3 - 0.0
15/05:00pm 26.1 27.0 22.0 78 2.8 SE 20 30 11 16 1012.3 1010.7 0.0
15/04:30pm 26.3 27.3 22.2 78 2.8 SE 20 32 11 17 1012.5 1010.9 0.0
15/04:00pm 26.5 27.3 21.7 75 3.2 SE 20 30 11 16 1012.6 1011.0 0.0
15/03:30pm 26.5 27.3 21.7 75 3.2 SE 20 32 11 17 1012.7 1011.1 0.0
15/03:08pm 26.7 27.5 21.7 74 3.4 SE 20 32 11 17 1012.8 - 0.0
15/03:00pm 27.2 28.2 22.2 74 3.4 SE 20 30 11 16 1012.8 1011.2 0.0
15/02:30pm 27.3 27.7 22.5 75 3.3 SE 24 32 13 17 1013.1 1011.5 0.0
15/02:26pm 27.0 27.4 22.4 76 3.1 ESE 24 32 13 17 1013.2 - 0.0
15/02:00pm 26.9 26.9 21.6 72 3.6 SE 24 37 13 20 1013.4 1011.8 0.0

Other formats

Comma delimited format used in spreadsheet applications
http://www.bom.gov.au/fwo/IDW60801/IDW60801.96995.axf

JavaScript Object Notation format (JSON) in row-major order
http://www.bom.gov.au/fwo/IDW60801/IDW60801.96995.json

Data quality

Most of these data are generated automatically and are frequently updated. Quality checks on data are not normally performed. It is possible for incorrect values to appear. Refer to information at About Latest Weather Observations and please check the disclaimer before using these data.